createdAt,value
2023-05-19T05:44:03.004Z,16.50
2023-05-19T05:46:52.643Z,14.80
2023-05-19T05:49:40.497Z,14.95
2023-05-19T05:52:31.092Z,12.13
2023-05-19T05:55:21.700Z,15.57
2023-05-19T05:58:11.613Z,10.57
2023-05-19T06:00:57.925Z,17.48
2023-05-19T06:03:45.208Z,12.43
2023-05-19T06:06:31.430Z,11.00
2023-05-19T06:09:17.257Z,16.62
2023-05-19T06:12:03.021Z,13.70
2023-05-19T06:14:48.515Z,14.48
2023-05-19T06:17:37.263Z,12.25
2023-05-19T06:20:22.850Z,11.48
2023-05-19T06:23:08.736Z,11.98
2023-05-19T06:25:54.372Z,13.55
2023-05-19T06:28:39.919Z,15.35
2023-05-19T06:31:26.789Z,11.63
2023-05-19T06:34:15.021Z,12.45
2023-05-19T06:37:02.528Z,9.70
2023-05-19T06:39:49.715Z,14.80
2023-05-19T06:42:35.206Z,9.55
2023-05-19T06:45:22.502Z,9.35
2023-05-19T06:48:09.804Z,11.20
2023-05-19T06:50:57.077Z,10.38
2023-05-19T06:53:42.785Z,10.70
2023-05-19T06:56:28.315Z,15.90
2023-05-19T06:59:13.902Z,9.48
2023-05-19T07:02:02.624Z,9.55
2023-05-19T07:04:48.072Z,12.95
2023-05-19T07:07:36.286Z,19.00
2023-05-19T07:10:22.122Z,13.93
2023-05-19T07:13:10.802Z,12.50
2023-05-19T07:15:56.322Z,9.68
2023-05-19T07:18:41.646Z,8.65
2023-05-19T07:21:27.002Z,13.70
2023-05-19T07:24:12.216Z,12.05
2023-05-19T07:26:58.178Z,11.75
2023-05-19T07:29:44.029Z,12.13
2023-05-19T07:32:29.326Z,10.13
2023-05-19T07:35:14.606Z,11.93
2023-05-19T07:37:59.904Z,11.80
2023-05-19T07:40:45.513Z,7.85
2023-05-19T07:43:34.308Z,8.82
2023-05-19T07:46:19.818Z,7.68
2023-05-19T07:49:05.117Z,5.95
2023-05-19T07:52:39.868Z,6.43
2023-05-19T07:55:26.375Z,6.15
2023-05-19T07:58:13.079Z,6.95
2023-05-19T08:00:59.092Z,6.30
2023-05-19T08:03:44.767Z,9.70
2023-05-19T08:06:30.167Z,7.18
2023-05-19T08:09:15.877Z,7.87
2023-05-19T08:12:02.334Z,8.48
2023-05-19T08:14:48.049Z,7.28
2023-05-19T08:17:33.644Z,10.32
2023-05-19T08:20:19.647Z,7.80
2023-05-19T08:23:05.586Z,8.25
2023-05-19T08:25:51.367Z,8.73
2023-05-19T08:28:36.655Z,8.32
2023-05-19T08:31:22.713Z,7.28
2023-05-19T08:34:08.056Z,7.05
2023-05-19T08:36:53.723Z,7.95
2023-05-19T08:39:39.463Z,6.70
2023-05-19T08:42:24.789Z,6.72
2023-05-19T08:45:10.937Z,10.00
2023-05-19T08:47:57.189Z,8.52
2023-05-19T08:50:47.549Z,7.85
2023-05-19T08:53:38.181Z,9.77
2023-05-19T08:56:26.822Z,7.62
2023-05-19T08:59:14.341Z,7.28
2023-05-19T09:02:00.012Z,8.50
2023-05-19T09:04:47.856Z,8.52
2023-05-19T09:07:35.031Z,7.90
2023-05-19T09:10:20.858Z,10.18
2023-05-19T09:13:07.907Z,11.45
2023-05-19T09:15:53.786Z,7.15
2023-05-19T09:18:40.687Z,8.13
2023-05-19T09:21:33.178Z,9.63
2023-05-19T09:24:19.450Z,9.10
2023-05-19T09:27:05.316Z,8.25
2023-05-19T09:29:51.159Z,8.10
2023-05-19T09:32:37.022Z,11.35
2023-05-19T09:35:22.630Z,7.35
2023-05-19T09:38:07.822Z,7.72
2023-05-19T09:40:58.443Z,7.20
2023-05-19T09:43:44.225Z,8.20
2023-05-19T09:46:34.076Z,7.70
2023-05-19T09:49:22.053Z,7.97
2023-05-19T09:52:11.031Z,8.10
2023-05-19T09:54:56.960Z,6.60
2023-05-19T09:57:42.569Z,7.95
2023-05-19T10:00:34.786Z,8.60
2023-05-19T10:03:22.558Z,7.85
2023-05-19T10:06:09.377Z,8.68
2023-05-19T10:08:55.188Z,8.40
2023-05-19T10:11:41.583Z,6.30
2023-05-19T10:14:29.034Z,6.93
2023-05-19T10:17:14.806Z,9.38
2023-05-19T10:20:00.954Z,6.95
2023-05-19T10:22:46.624Z,6.62
2023-05-19T10:25:33.768Z,6.87
2023-05-19T10:28:21.214Z,5.70
2023-05-19T10:31:08.560Z,6.22
2023-05-19T10:34:12.585Z,4.85
2023-05-19T10:37:25.034Z,4.57
2023-05-19T10:40:29.810Z,4.37
2023-05-19T10:43:53.161Z,5.62
2023-05-19T10:46:40.626Z,4.30
2023-05-19T10:49:26.195Z,3.67
2023-05-19T10:52:22.187Z,4.60
2023-05-19T10:55:09.546Z,6.25
2023-05-19T10:57:56.985Z,7.07
2023-05-19T11:00:42.491Z,4.55
2023-05-19T11:03:44.766Z,5.53
2023-05-19T11:06:32.142Z,4.40
2023-05-19T11:09:34.011Z,6.68
2023-05-19T11:12:25.350Z,4.03
2023-05-19T11:15:15.094Z,4.03
2023-05-19T11:18:02.334Z,8.75
2023-05-19T11:20:58.237Z,4.95
2023-05-19T11:23:44.075Z,5.22
2023-05-19T11:26:43.459Z,7.32
2023-05-19T11:29:29.118Z,5.05
2023-05-19T11:32:20.076Z,6.10
2023-05-19T11:35:06.095Z,6.25
2023-05-19T11:37:55.027Z,4.55
2023-05-19T11:40:42.025Z,6.50
2023-05-19T11:43:27.601Z,4.50
2023-05-19T11:46:12.787Z,4.47
2023-05-19T11:48:57.998Z,4.95
2023-05-19T11:51:43.931Z,5.22
